sensor_id;sensor_type;location;lat;lon;timestamp;P1;durP1;ratioP1;P2;durP2;ratioP2
25531;SDS011;13429;48.816;9.118;2023-04-24T00:00:08;4.05;;;0.63;;
25531;SDS011;13429;48.816;9.118;2023-04-24T00:02:37;1.52;;;0.80;;
25531;SDS011;13429;48.816;9.118;2023-04-24T00:05:05;1.33;;;0.65;;
25531;SDS011;13429;48.816;9.118;2023-04-24T00:07:31;0.80;;;0.60;;
25531;SDS011;13429;48.816;9.118;2023-04-24T00:09:57;1.63;;;0.70;;
25531;SDS011;13429;48.816;9.118;2023-04-24T00:12:24;1.60;;;0.55;;
25531;SDS011;13429;48.816;9.118;2023-04-24T00:14:50;0.98;;;0.73;;
25531;SDS011;13429;48.816;9.118;2023-04-24T00:17:16;3.05;;;0.60;;
25531;SDS011;13429;48.816;9.118;2023-04-24T00:19:45;2.38;;;0.80;;
25531;SDS011;13429;48.816;9.118;2023-04-24T00:22:11;1.48;;;0.60;;
25531;SDS011;13429;48.816;9.118;2023-04-24T00:24:38;2.92;;;0.65;;
25531;SDS011;13429;48.816;9.118;2023-04-24T00:27:04;1.88;;;0.80;;
25531;SDS011;13429;48.816;9.118;2023-04-24T00:29:30;1.90;;;0.70;;
25531;SDS011;13429;48.816;9.118;2023-04-24T00:31:56;0.90;;;0.50;;
25531;SDS011;13429;48.816;9.118;2023-04-24T00:34:22;3.08;;;0.65;;
25531;SDS011;13429;48.816;9.118;2023-04-24T00:36:49;2.97;;;0.80;;
25531;SDS011;13429;48.816;9.118;2023-04-24T00:39:17;1.88;;;0.63;;
25531;SDS011;13429;48.816;9.118;2023-04-24T00:41:43;1.00;;;0.50;;
25531;SDS011;13429;48.816;9.118;2023-04-24T00:44:10;0.95;;;0.60;;
25531;SDS011;13429;48.816;9.118;2023-04-24T00:46:36;2.42;;;0.80;;
25531;SDS011;13429;48.816;9.118;2023-04-24T00:49:02;0.90;;;0.65;;
25531;SDS011;13429;48.816;9.118;2023-04-24T00:51:29;4.05;;;0.52;;
25531;SDS011;13429;48.816;9.118;2023-04-24T00:53:55;1.83;;;0.90;;
25531;SDS011;13429;48.816;9.118;2023-04-24T00:56:21;0.98;;;0.43;;
25531;SDS011;13429;48.816;9.118;2023-04-24T00:58:48;2.63;;;0.85;;
25531;SDS011;13429;48.816;9.118;2023-04-24T01:01:15;0.65;;;0.47;;
25531;SDS011;13429;48.816;9.118;2023-04-24T01:03:41;2.25;;;0.57;;
25531;SDS011;13429;48.816;9.118;2023-04-24T01:06:07;1.90;;;0.70;;
25531;SDS011;13429;48.816;9.118;2023-04-24T01:08:34;5.10;;;0.85;;
25531;SDS011;13429;48.816;9.118;2023-04-24T01:11:01;1.77;;;0.40;;
25531;SDS011;13429;48.816;9.118;2023-04-24T01:13:28;3.22;;;0.68;;
25531;SDS011;13429;48.816;9.118;2023-04-24T01:15:55;2.42;;;0.63;;
25531;SDS011;13429;48.816;9.118;2023-04-24T01:18:21;2.30;;;0.57;;
25531;SDS011;13429;48.816;9.118;2023-04-24T01:20:47;0.90;;;0.40;;
25531;SDS011;13429;48.816;9.118;2023-04-24T01:23:16;1.25;;;0.55;;
25531;SDS011;13429;48.816;9.118;2023-04-24T01:25:42;1.23;;;0.40;;
25531;SDS011;13429;48.816;9.118;2023-04-24T01:28:09;3.42;;;0.82;;
25531;SDS011;13429;48.816;9.118;2023-04-24T01:30:35;0.77;;;0.57;;
25531;SDS011;13429;48.816;9.118;2023-04-24T01:33:02;2.13;;;0.50;;
25531;SDS011;13429;48.816;9.118;2023-04-24T01:35:28;2.83;;;0.65;;
25531;SDS011;13429;48.816;9.118;2023-04-24T01:37:54;1.27;;;0.70;;
25531;SDS011;13429;48.816;9.118;2023-04-24T01:40:20;2.33;;;0.50;;
25531;SDS011;13429;48.816;9.118;2023-04-24T01:42:47;2.45;;;0.68;;
25531;SDS011;13429;48.816;9.118;2023-04-24T01:45:13;1.92;;;0.68;;
25531;SDS011;13429;48.816;9.118;2023-04-24T01:47:40;2.05;;;0.40;;
25531;SDS011;13429;48.816;9.118;2023-04-24T01:50:06;0.80;;;0.55;;
25531;SDS011;13429;48.816;9.118;2023-04-24T01:52:32;1.60;;;0.60;;
25531;SDS011;13429;48.816;9.118;2023-04-24T01:55:04;3.55;;;0.50;;
25531;SDS011;13429;48.816;9.118;2023-04-24T01:57:31;0.68;;;0.40;;
25531;SDS011;13429;48.816;9.118;2023-04-24T01:59:57;2.38;;;0.95;;
25531;SDS011;13429;48.816;9.118;2023-04-24T02:02:23;1.23;;;0.60;;
25531;SDS011;13429;48.816;9.118;2023-04-24T02:04:52;1.00;;;0.60;;
25531;SDS011;13429;48.816;9.118;2023-04-24T02:07:18;3.05;;;0.57;;
25531;SDS011;13429;48.816;9.118;2023-04-24T02:09:44;2.92;;;0.73;;
25531;SDS011;13429;48.816;9.118;2023-04-24T02:12:10;1.35;;;0.68;;
25531;SDS011;13429;48.816;9.118;2023-04-24T02:14:36;0.90;;;0.60;;
25531;SDS011;13429;48.816;9.118;2023-04-24T02:17:02;2.33;;;0.50;;
25531;SDS011;13429;48.816;9.118;2023-04-24T02:19:28;1.85;;;0.52;;
25531;SDS011;13429;48.816;9.118;2023-04-24T02:21:54;0.82;;;0.50;;
25531;SDS011;13429;48.816;9.118;2023-04-24T02:24:20;1.60;;;0.60;;
25531;SDS011;13429;48.816;9.118;2023-04-24T02:26:46;3.03;;;0.60;;
25531;SDS011;13429;48.816;9.118;2023-04-24T02:29:12;2.08;;;0.57;;
25531;SDS011;13429;48.816;9.118;2023-04-24T02:31:38;2.90;;;0.65;;
25531;SDS011;13429;48.816;9.118;2023-04-24T02:34:04;1.83;;;0.95;;
25531;SDS011;13429;48.816;9.118;2023-04-24T02:36:30;0.68;;;0.50;;
25531;SDS011;13429;48.816;9.118;2023-04-24T02:38:56;3.47;;;0.68;;
25531;SDS011;13429;48.816;9.118;2023-04-24T02:41:23;2.67;;;0.73;;
25531;SDS011;13429;48.816;9.118;2023-04-24T02:43:49;1.00;;;0.60;;
25531;SDS011;13429;48.816;9.118;2023-04-24T02:46:15;1.45;;;0.70;;
25531;SDS011;13429;48.816;9.118;2023-04-24T02:48:41;2.20;;;0.90;;
25531;SDS011;13429;48.816;9.118;2023-04-24T02:51:07;3.63;;;0.85;;
25531;SDS011;13429;48.816;9.118;2023-04-24T02:53:33;1.25;;;0.70;;
25531;SDS011;13429;48.816;9.118;2023-04-24T02:55:59;0.57;;;0.50;;
25531;SDS011;13429;48.816;9.118;2023-04-24T02:58:26;1.25;;;0.40;;
25531;SDS011;13429;48.816;9.118;2023-04-24T03:00:55;2.08;;;0.80;;
25531;SDS011;13429;48.816;9.118;2023-04-24T03:03:21;8.38;;;1.10;;
25531;SDS011;13429;48.816;9.118;2023-04-24T03:05:48;2.00;;;0.73;;
25531;SDS011;13429;48.816;9.118;2023-04-24T03:08:15;2.42;;;0.80;;
25531;SDS011;13429;48.816;9.118;2023-04-24T03:10:41;3.33;;;0.90;;
25531;SDS011;13429;48.816;9.118;2023-04-24T03:13:07;2.08;;;0.80;;
25531;SDS011;13429;48.816;9.118;2023-04-24T03:15:33;2.00;;;1.00;;
25531;SDS011;13429;48.816;9.118;2023-04-24T03:17:59;2.90;;;0.55;;
25531;SDS011;13429;48.816;9.118;2023-04-24T03:20:25;2.17;;;0.90;;
25531;SDS011;13429;48.816;9.118;2023-04-24T03:22:52;4.40;;;0.73;;
25531;SDS011;13429;48.816;9.118;2023-04-24T03:25:18;3.55;;;1.08;;
25531;SDS011;13429;48.816;9.118;2023-04-24T03:27:44;1.70;;;0.82;;
25531;SDS011;13429;48.816;9.118;2023-04-24T03:30:10;1.05;;;0.68;;
25531;SDS011;13429;48.816;9.118;2023-04-24T03:32:36;2.22;;;0.88;;
25531;SDS011;13429;48.816;9.118;2023-04-24T03:35:04;4.72;;;0.90;;
25531;SDS011;13429;48.816;9.118;2023-04-24T03:37:30;1.55;;;0.80;;
25531;SDS011;13429;48.816;9.118;2023-04-24T03:39:56;3.75;;;1.00;;
25531;SDS011;13429;48.816;9.118;2023-04-24T03:42:22;2.20;;;0.73;;
25531;SDS011;13429;48.816;9.118;2023-04-24T03:44:48;5.20;;;0.93;;
25531;SDS011;13429;48.816;9.118;2023-04-24T03:47:14;5.05;;;1.40;;
25531;SDS011;13429;48.816;9.118;2023-04-24T03:49:40;1.92;;;0.60;;
25531;SDS011;13429;48.816;9.118;2023-04-24T03:52:06;2.45;;;0.68;;
25531;SDS011;13429;48.816;9.118;2023-04-24T03:54:32;9.05;;;1.00;;
25531;SDS011;13429;48.816;9.118;2023-04-24T03:56:58;2.70;;;0.80;;
25531;SDS011;13429;48.816;9.118;2023-04-24T03:59:24;1.25;;;0.90;;
25531;SDS011;13429;48.816;9.118;2023-04-24T04:01:50;3.70;;;1.88;;
25531;SDS011;13429;48.816;9.118;2023-04-24T04:04:16;4.28;;;1.27;;
25531;SDS011;13429;48.816;9.118;2023-04-24T04:06:42;4.60;;;1.25;;
25531;SDS011;13429;48.816;9.118;2023-04-24T04:09:09;3.67;;;1.25;;
25531;SDS011;13429;48.816;9.118;2023-04-24T04:11:35;2.25;;;0.73;;
25531;SDS011;13429;48.816;9.118;2023-04-24T04:14:01;1.92;;;0.73;;
25531;SDS011;13429;48.816;9.118;2023-04-24T04:16:28;2.08;;;0.65;;
25531;SDS011;13429;48.816;9.118;2023-04-24T04:18:54;1.52;;;0.60;;
25531;SDS011;13429;48.816;9.118;2023-04-24T04:21:20;1.13;;;0.70;;
25531;SDS011;13429;48.816;9.118;2023-04-24T04:23:46;2.90;;;0.75;;
25531;SDS011;13429;48.816;9.118;2023-04-24T04:26:13;3.08;;;1.35;;
25531;SDS011;13429;48.816;9.118;2023-04-24T04:28:39;1.73;;;1.08;;
25531;SDS011;13429;48.816;9.118;2023-04-24T04:31:05;4.72;;;1.20;;
25531;SDS011;13429;48.816;9.118;2023-04-24T04:33:32;1.83;;;1.05;;
25531;SDS011;13429;48.816;9.118;2023-04-24T04:35:59;2.15;;;1.20;;
25531;SDS011;13429;48.816;9.118;2023-04-24T04:38:25;1.35;;;0.77;;
25531;SDS011;13429;48.816;9.118;2023-04-24T04:40:55;1.85;;;1.20;;
25531;SDS011;13429;48.816;9.118;2023-04-24T04:43:24;1.45;;;1.00;;
25531;SDS011;13429;48.816;9.118;2023-04-24T04:45:51;1.88;;;1.00;;
25531;SDS011;13429;48.816;9.118;2023-04-24T04:48:19;1.55;;;1.20;;
25531;SDS011;13429;48.816;9.118;2023-04-24T04:50:45;2.70;;;0.80;;
25531;SDS011;13429;48.816;9.118;2023-04-24T04:53:14;1.17;;;0.98;;
25531;SDS011;13429;48.816;9.118;2023-04-24T04:55:40;1.08;;;0.82;;
25531;SDS011;13429;48.816;9.118;2023-04-24T04:58:06;3.15;;;0.90;;
25531;SDS011;13429;48.816;9.118;2023-04-24T05:00:33;2.08;;;1.00;;
25531;SDS011;13429;48.816;9.118;2023-04-24T05:03:00;3.85;;;1.10;;
25531;SDS011;13429;48.816;9.118;2023-04-24T05:05:27;1.98;;;1.20;;
25531;SDS011;13429;48.816;9.118;2023-04-24T05:07:53;1.08;;;0.68;;
25531;SDS011;13429;48.816;9.118;2023-04-24T05:10:19;2.67;;;1.25;;
25531;SDS011;13429;48.816;9.118;2023-04-24T05:12:45;2.88;;;0.90;;
25531;SDS011;13429;48.816;9.118;2023-04-24T05:15:11;1.45;;;0.98;;
25531;SDS011;13429;48.816;9.118;2023-04-24T05:17:37;2.35;;;0.90;;
25531;SDS011;13429;48.816;9.118;2023-04-24T05:20:04;2.35;;;0.88;;
25531;SDS011;13429;48.816;9.118;2023-04-24T05:22:31;0.95;;;0.85;;
25531;SDS011;13429;48.816;9.118;2023-04-24T05:24:57;1.50;;;0.50;;
25531;SDS011;13429;48.816;9.118;2023-04-24T05:27:24;1.45;;;1.10;;
25531;SDS011;13429;48.816;9.118;2023-04-24T05:29:50;3.30;;;0.95;;
25531;SDS011;13429;48.816;9.118;2023-04-24T05:32:16;1.13;;;0.90;;
25531;SDS011;13429;48.816;9.118;2023-04-24T05:34:42;0.98;;;0.80;;
25531;SDS011;13429;48.816;9.118;2023-04-24T05:37:08;1.58;;;1.17;;
25531;SDS011;13429;48.816;9.118;2023-04-24T05:39:35;3.50;;;1.10;;
25531;SDS011;13429;48.816;9.118;2023-04-24T05:42:01;2.05;;;1.10;;
25531;SDS011;13429;48.816;9.118;2023-04-24T05:44:29;2.75;;;1.05;;
25531;SDS011;13429;48.816;9.118;2023-04-24T05:46:55;1.88;;;1.10;;
25531;SDS011;13429;48.816;9.118;2023-04-24T05:49:21;1.48;;;0.88;;
25531;SDS011;13429;48.816;9.118;2023-04-24T05:51:47;4.55;;;1.10;;
25531;SDS011;13429;48.816;9.118;2023-04-24T05:54:13;4.03;;;0.90;;
25531;SDS011;13429;48.816;9.118;2023-04-24T05:56:40;3.65;;;1.02;;
25531;SDS011;13429;48.816;9.118;2023-04-24T05:59:06;5.68;;;1.23;;
25531;SDS011;13429;48.816;9.118;2023-04-24T06:01:33;3.10;;;1.30;;
25531;SDS011;13429;48.816;9.118;2023-04-24T06:03:59;1.38;;;0.95;;
25531;SDS011;13429;48.816;9.118;2023-04-24T06:06:25;1.83;;;1.30;;
25531;SDS011;13429;48.816;9.118;2023-04-24T06:08:52;2.88;;;1.60;;
25531;SDS011;13429;48.816;9.118;2023-04-24T06:11:18;2.90;;;1.60;;
25531;SDS011;13429;48.816;9.118;2023-04-24T06:13:44;2.85;;;1.50;;
25531;SDS011;13429;48.816;9.118;2023-04-24T06:16:10;3.65;;;1.80;;
25531;SDS011;13429;48.816;9.118;2023-04-24T06:18:36;2.70;;;1.58;;
25531;SDS011;13429;48.816;9.118;2023-04-24T06:21:03;2.00;;;1.50;;
25531;SDS011;13429;48.816;9.118;2023-04-24T06:23:30;5.25;;;1.67;;
25531;SDS011;13429;48.816;9.118;2023-04-24T06:25:57;4.53;;;1.95;;
25531;SDS011;13429;48.816;9.118;2023-04-24T06:28:23;2.15;;;1.40;;
25531;SDS011;13429;48.816;9.118;2023-04-24T06:30:49;3.65;;;1.63;;
25531;SDS011;13429;48.816;9.118;2023-04-24T06:33:15;4.32;;;1.52;;
25531;SDS011;13429;48.816;9.118;2023-04-24T06:35:42;1.65;;;1.20;;
25531;SDS011;13429;48.816;9.118;2023-04-24T06:38:08;1.65;;;1.00;;
25531;SDS011;13429;48.816;9.118;2023-04-24T06:40:34;1.83;;;1.45;;
25531;SDS011;13429;48.816;9.118;2023-04-24T06:43:00;2.30;;;1.23;;
25531;SDS011;13429;48.816;9.118;2023-04-24T06:45:27;1.92;;;1.33;;
25531;SDS011;13429;48.816;9.118;2023-04-24T06:47:54;3.38;;;1.38;;
25531;SDS011;13429;48.816;9.118;2023-04-24T06:50:20;2.28;;;1.58;;
25531;SDS011;13429;48.816;9.118;2023-04-24T06:52:46;1.98;;;1.58;;
25531;SDS011;13429;48.816;9.118;2023-04-24T06:55:12;2.80;;;1.45;;
25531;SDS011;13429;48.816;9.118;2023-04-24T06:57:40;3.15;;;1.58;;
25531;SDS011;13429;48.816;9.118;2023-04-24T07:00:06;2.88;;;1.55;;
25531;SDS011;13429;48.816;9.118;2023-04-24T07:02:34;4.93;;;2.30;;
25531;SDS011;13429;48.816;9.118;2023-04-24T07:05:00;3.83;;;1.42;;
25531;SDS011;13429;48.816;9.118;2023-04-24T07:07:26;2.10;;;1.50;;
25531;SDS011;13429;48.816;9.118;2023-04-24T07:09:54;4.28;;;1.60;;
25531;SDS011;13429;48.816;9.118;2023-04-24T07:12:21;3.25;;;1.50;;
25531;SDS011;13429;48.816;9.118;2023-04-24T07:14:47;2.33;;;1.42;;
25531;SDS011;13429;48.816;9.118;2023-04-24T07:17:13;5.15;;;1.58;;
25531;SDS011;13429;48.816;9.118;2023-04-24T07:19:39;5.28;;;1.60;;
25531;SDS011;13429;48.816;9.118;2023-04-24T07:22:05;4.00;;;1.33;;
25531;SDS011;13429;48.816;9.118;2023-04-24T07:24:32;4.28;;;2.15;;
25531;SDS011;13429;48.816;9.118;2023-04-24T07:26:58;2.28;;;1.42;;
25531;SDS011;13429;48.816;9.118;2023-04-24T07:29:26;2.38;;;1.20;;
25531;SDS011;13429;48.816;9.118;2023-04-24T07:31:52;2.95;;;1.63;;
25531;SDS011;13429;48.816;9.118;2023-04-24T07:34:19;1.92;;;1.48;;
25531;SDS011;13429;48.816;9.118;2023-04-24T07:36:45;1.73;;;1.27;;
25531;SDS011;13429;48.816;9.118;2023-04-24T07:39:12;1.58;;;1.08;;
25531;SDS011;13429;48.816;9.118;2023-04-24T07:41:38;2.22;;;1.10;;
25531;SDS011;13429;48.816;9.118;2023-04-24T07:44:04;2.42;;;1.30;;
25531;SDS011;13429;48.816;9.118;2023-04-24T07:46:30;3.28;;;1.20;;
25531;SDS011;13429;48.816;9.118;2023-04-24T07:48:56;3.30;;;1.20;;
25531;SDS011;13429;48.816;9.118;2023-04-24T07:51:24;3.00;;;1.17;;
25531;SDS011;13429;48.816;9.118;2023-04-24T07:53:52;3.05;;;1.58;;
25531;SDS011;13429;48.816;9.118;2023-04-24T07:56:19;2.35;;;1.13;;
25531;SDS011;13429;48.816;9.118;2023-04-24T07:58:45;3.00;;;1.17;;
25531;SDS011;13429;48.816;9.118;2023-04-24T08:01:11;1.88;;;1.38;;
25531;SDS011;13429;48.816;9.118;2023-04-24T08:03:37;3.13;;;1.33;;
25531;SDS011;13429;48.816;9.118;2023-04-24T08:06:04;2.58;;;1.13;;
25531;SDS011;13429;48.816;9.118;2023-04-24T08:08:30;4.38;;;1.40;;
25531;SDS011;13429;48.816;9.118;2023-04-24T08:10:56;1.98;;;1.17;;
25531;SDS011;13429;48.816;9.118;2023-04-24T08:13:22;3.03;;;1.23;;
25531;SDS011;13429;48.816;9.118;2023-04-24T08:15:48;2.65;;;1.30;;
25531;SDS011;13429;48.816;9.118;2023-04-24T08:18:14;3.45;;;1.05;;
25531;SDS011;13429;48.816;9.118;2023-04-24T08:20:40;2.55;;;1.30;;
25531;SDS011;13429;48.816;9.118;2023-04-24T08:23:06;3.78;;;1.02;;
25531;SDS011;13429;48.816;9.118;2023-04-24T08:25:32;2.20;;;1.13;;
25531;SDS011;13429;48.816;9.118;2023-04-24T08:28:00;2.88;;;1.40;;
25531;SDS011;13429;48.816;9.118;2023-04-24T08:30:26;1.52;;;1.20;;
25531;SDS011;13429;48.816;9.118;2023-04-24T08:32:52;2.97;;;1.80;;
25531;SDS011;13429;48.816;9.118;2023-04-24T08:35:18;2.13;;;1.45;;
25531;SDS011;13429;48.816;9.118;2023-04-24T08:37:44;2.80;;;1.23;;
25531;SDS011;13429;48.816;9.118;2023-04-24T08:40:12;4.35;;;1.48;;
25531;SDS011;13429;48.816;9.118;2023-04-24T08:42:39;2.38;;;1.42;;
25531;SDS011;13429;48.816;9.118;2023-04-24T08:45:07;3.00;;;1.45;;
25531;SDS011;13429;48.816;9.118;2023-04-24T08:47:34;1.60;;;1.20;;
25531;SDS011;13429;48.816;9.118;2023-04-24T08:50:02;1.98;;;1.13;;
25531;SDS011;13429;48.816;9.118;2023-04-24T08:52:28;1.42;;;1.02;;
25531;SDS011;13429;48.816;9.118;2023-04-24T08:54:54;7.13;;;1.45;;
25531;SDS011;13429;48.816;9.118;2023-04-24T08:57:20;5.85;;;1.33;;
25531;SDS011;13429;48.816;9.118;2023-04-24T08:59:47;1.90;;;1.67;;
25531;SDS011;13429;48.816;9.118;2023-04-24T09:02:13;3.47;;;1.38;;
25531;SDS011;13429;48.816;9.118;2023-04-24T09:04:40;3.17;;;1.60;;
25531;SDS011;13429;48.816;9.118;2023-04-24T09:07:06;2.75;;;1.55;;
25531;SDS011;13429;48.816;9.118;2023-04-24T09:09:33;1.85;;;1.10;;
25531;SDS011;13429;48.816;9.118;2023-04-24T09:12:00;5.70;;;1.50;;
25531;SDS011;13429;48.816;9.118;2023-04-24T09:14:27;3.20;;;1.33;;
25531;SDS011;13429;48.816;9.118;2023-04-24T09:16:53;2.38;;;1.10;;
25531;SDS011;13429;48.816;9.118;2023-04-24T09:19:19;2.50;;;1.20;;
25531;SDS011;13429;48.816;9.118;2023-04-24T09:21:46;5.95;;;1.83;;
25531;SDS011;13429;48.816;9.118;2023-04-24T09:24:19;1.60;;;1.20;;
25531;SDS011;13429;48.816;9.118;2023-04-24T09:26:47;1.40;;;1.25;;
25531;SDS011;13429;48.816;9.118;2023-04-24T09:29:17;1.55;;;1.10;;
25531;SDS011;13429;48.816;9.118;2023-04-24T09:31:44;1.52;;;1.40;;
25531;SDS011;13429;48.816;9.118;2023-04-24T09:34:10;4.10;;;1.77;;
25531;SDS011;13429;48.816;9.118;2023-04-24T09:36:38;1.55;;;0.90;;
25531;SDS011;13429;48.816;9.118;2023-04-24T09:39:05;2.67;;;1.58;;
25531;SDS011;13429;48.816;9.118;2023-04-24T09:41:33;1.75;;;1.10;;
25531;SDS011;13429;48.816;9.118;2023-04-24T09:44:15;3.92;;;1.50;;
25531;SDS011;13429;48.816;9.118;2023-04-24T09:46:43;2.72;;;1.40;;
25531;SDS011;13429;48.816;9.118;2023-04-24T09:49:10;3.55;;;1.00;;
25531;SDS011;13429;48.816;9.118;2023-04-24T09:51:36;1.40;;;1.10;;
25531;SDS011;13429;48.816;9.118;2023-04-24T09:54:04;2.13;;;1.00;;
25531;SDS011;13429;48.816;9.118;2023-04-24T09:56:34;1.40;;;0.93;;
25531;SDS011;13429;48.816;9.118;2023-04-24T09:59:04;2.05;;;0.93;;
25531;SDS011;13429;48.816;9.118;2023-04-24T10:01:30;1.45;;;1.02;;
25531;SDS011;13429;48.816;9.118;2023-04-24T10:03:57;3.92;;;1.40;;
25531;SDS011;13429;48.816;9.118;2023-04-24T10:06:29;2.63;;;1.40;;
25531;SDS011;13429;48.816;9.118;2023-04-24T10:08:55;3.65;;;1.25;;
25531;SDS011;13429;48.816;9.118;2023-04-24T10:11:23;1.05;;;0.93;;
25531;SDS011;13429;48.816;9.118;2023-04-24T10:13:49;1.25;;;1.00;;
25531;SDS011;13429;48.816;9.118;2023-04-24T10:16:16;2.70;;;1.63;;
25531;SDS011;13429;48.816;9.118;2023-04-24T10:18:42;1.77;;;1.10;;
25531;SDS011;13429;48.816;9.118;2023-04-24T10:21:08;3.50;;;1.02;;
25531;SDS011;13429;48.816;9.118;2023-04-24T10:23:35;2.42;;;1.30;;
25531;SDS011;13429;48.816;9.118;2023-04-24T10:26:01;1.50;;;1.17;;
25531;SDS011;13429;48.816;9.118;2023-04-24T10:28:28;2.83;;;1.10;;
25531;SDS011;13429;48.816;9.118;2023-04-24T10:30:56;3.00;;;1.15;;
25531;SDS011;13429;48.816;9.118;2023-04-24T10:33:22;2.60;;;1.48;;
25531;SDS011;13429;48.816;9.118;2023-04-24T10:35:52;3.53;;;1.17;;
25531;SDS011;13429;48.816;9.118;2023-04-24T10:38:21;3.08;;;1.10;;
25531;SDS011;13429;48.816;9.118;2023-04-24T10:40:49;2.47;;;1.17;;
25531;SDS011;13429;48.816;9.118;2023-04-24T10:43:16;2.20;;;1.20;;
25531;SDS011;13429;48.816;9.118;2023-04-24T10:45:42;2.92;;;1.30;;
25531;SDS011;13429;48.816;9.118;2023-04-24T10:48:26;3.30;;;1.10;;
25531;SDS011;13429;48.816;9.118;2023-04-24T10:50:53;2.72;;;1.33;;
25531;SDS011;13429;48.816;9.118;2023-04-24T10:53:23;3.88;;;1.40;;
25531;SDS011;13429;48.816;9.118;2023-04-24T10:55:52;1.77;;;1.02;;
25531;SDS011;13429;48.816;9.118;2023-04-24T10:58:22;2.15;;;1.15;;
25531;SDS011;13429;48.816;9.118;2023-04-24T11:01:00;1.58;;;1.17;;
25531;SDS011;13429;48.816;9.118;2023-04-24T11:03:27;2.78;;;1.08;;
25531;SDS011;13429;48.816;9.118;2023-04-24T11:05:58;1.58;;;1.08;;
25531;SDS011;13429;48.816;9.118;2023-04-24T11:08:43;2.13;;;1.20;;
25531;SDS011;13429;48.816;9.118;2023-04-24T11:16:28;2.70;;;1.10;;
25531;SDS011;13429;48.816;9.118;2023-04-24T11:19:27;5.78;;;1.73;;
25531;SDS011;13429;48.816;9.118;2023-04-24T11:24:32;3.50;;;1.58;;
25531;SDS011;13429;48.816;9.118;2023-04-24T11:27:20;1.75;;;1.42;;
25531;SDS011;13429;48.816;9.118;2023-04-24T11:34:46;1.60;;;1.02;;
25531;SDS011;13429;48.816;9.118;2023-04-24T11:37:13;3.28;;;1.05;;
25531;SDS011;13429;48.816;9.118;2023-04-24T11:39:39;1.85;;;1.15;;
25531;SDS011;13429;48.816;9.118;2023-04-24T11:42:06;2.05;;;1.50;;
25531;SDS011;13429;48.816;9.118;2023-04-24T11:44:36;2.67;;;1.17;;
25531;SDS011;13429;48.816;9.118;2023-04-24T11:47:05;3.95;;;1.98;;
25531;SDS011;13429;48.816;9.118;2023-04-24T11:49:32;1.60;;;1.27;;
25531;SDS011;13429;48.816;9.118;2023-04-24T11:51:59;2.63;;;1.27;;
25531;SDS011;13429;48.816;9.118;2023-04-24T11:54:26;2.00;;;1.10;;
25531;SDS011;13429;48.816;9.118;2023-04-24T11:56:52;3.25;;;1.20;;
25531;SDS011;13429;48.816;9.118;2023-04-24T11:59:18;1.70;;;1.15;;
25531;SDS011;13429;48.816;9.118;2023-04-24T12:01:44;2.17;;;1.35;;
25531;SDS011;13429;48.816;9.118;2023-04-24T12:04:10;2.17;;;1.10;;
25531;SDS011;13429;48.816;9.118;2023-04-24T12:06:37;1.13;;;1.00;;
25531;SDS011;13429;48.816;9.118;2023-04-24T12:09:03;2.17;;;1.15;;
25531;SDS011;13429;48.816;9.118;2023-04-24T12:11:29;1.52;;;1.08;;
25531;SDS011;13429;48.816;9.118;2023-04-24T12:13:55;3.63;;;1.60;;
25531;SDS011;13429;48.816;9.118;2023-04-24T12:16:22;3.00;;;1.42;;
25531;SDS011;13429;48.816;9.118;2023-04-24T12:18:50;1.92;;;1.10;;
25531;SDS011;13429;48.816;9.118;2023-04-24T12:23:43;2.47;;;1.35;;
25531;SDS011;13429;48.816;9.118;2023-04-24T12:26:10;3.83;;;1.00;;
25531;SDS011;13429;48.816;9.118;2023-04-24T12:28:37;1.63;;;1.20;;
25531;SDS011;13429;48.816;9.118;2023-04-24T12:31:03;1.40;;;1.20;;
25531;SDS011;13429;48.816;9.118;2023-04-24T12:33:32;2.33;;;1.20;;
25531;SDS011;13429;48.816;9.118;2023-04-24T12:35:59;4.38;;;1.60;;
25531;SDS011;13429;48.816;9.118;2023-04-24T12:38:28;2.10;;;1.30;;
25531;SDS011;13429;48.816;9.118;2023-04-24T12:41:02;2.33;;;1.30;;
25531;SDS011;13429;48.816;9.118;2023-04-24T12:43:29;2.17;;;1.55;;
25531;SDS011;13429;48.816;9.118;2023-04-24T12:45:55;2.03;;;1.10;;
25531;SDS011;13429;48.816;9.118;2023-04-24T12:48:22;4.00;;;1.20;;
25531;SDS011;13429;48.816;9.118;2023-04-24T12:50:48;3.72;;;1.48;;
25531;SDS011;13429;48.816;9.118;2023-04-24T12:53:14;0.98;;;0.88;;
25531;SDS011;13429;48.816;9.118;2023-04-24T12:55:41;1.80;;;1.30;;
25531;SDS011;13429;48.816;9.118;2023-04-24T12:58:07;3.47;;;1.10;;
25531;SDS011;13429;48.816;9.118;2023-04-24T13:00:33;2.85;;;2.10;;
25531;SDS011;13429;48.816;9.118;2023-04-24T13:02:59;2.00;;;1.40;;
25531;SDS011;13429;48.816;9.118;2023-04-24T13:05:25;3.28;;;1.30;;
25531;SDS011;13429;48.816;9.118;2023-04-24T13:07:51;1.48;;;1.10;;
25531;SDS011;13429;48.816;9.118;2023-04-24T13:10:17;1.83;;;1.02;;
25531;SDS011;13429;48.816;9.118;2023-04-24T13:12:44;4.35;;;1.42;;
25531;SDS011;13429;48.816;9.118;2023-04-24T13:15:11;6.70;;;1.70;;
25531;SDS011;13429;48.816;9.118;2023-04-24T13:17:37;2.00;;;1.38;;
25531;SDS011;13429;48.816;9.118;2023-04-24T13:20:03;3.13;;;1.60;;
25531;SDS011;13429;48.816;9.118;2023-04-24T13:22:30;4.00;;;2.17;;
25531;SDS011;13429;48.816;9.118;2023-04-24T13:24:56;2.95;;;1.80;;
25531;SDS011;13429;48.816;9.118;2023-04-24T13:27:22;2.17;;;1.52;;
25531;SDS011;13429;48.816;9.118;2023-04-24T13:29:48;3.33;;;1.60;;
25531;SDS011;13429;48.816;9.118;2023-04-24T13:32:14;2.45;;;1.38;;
25531;SDS011;13429;48.816;9.118;2023-04-24T13:34:40;4.15;;;1.65;;
25531;SDS011;13429;48.816;9.118;2023-04-24T13:37:06;2.85;;;1.83;;
25531;SDS011;13429;48.816;9.118;2023-04-24T13:39:33;2.25;;;1.80;;
25531;SDS011;13429;48.816;9.118;2023-04-24T13:41:59;2.83;;;2.13;;
25531;SDS011;13429;48.816;9.118;2023-04-24T13:44:25;2.90;;;2.20;;
25531;SDS011;13429;48.816;9.118;2023-04-24T13:46:53;2.60;;;1.58;;
25531;SDS011;13429;48.816;9.118;2023-04-24T13:49:22;2.40;;;1.27;;
25531;SDS011;13429;48.816;9.118;2023-04-24T13:51:50;1.40;;;1.10;;
25531;SDS011;13429;48.816;9.118;2023-04-24T13:54:16;1.30;;;0.98;;
25531;SDS011;13429;48.816;9.118;2023-04-24T13:56:42;2.17;;;1.23;;
25531;SDS011;13429;48.816;9.118;2023-04-24T13:59:08;3.10;;;1.05;;
25531;SDS011;13429;48.816;9.118;2023-04-24T14:01:34;2.22;;;1.10;;
25531;SDS011;13429;48.816;9.118;2023-04-24T14:04:00;2.47;;;1.15;;
25531;SDS011;13429;48.816;9.118;2023-04-24T14:06:27;3.03;;;0.90;;
25531;SDS011;13429;48.816;9.118;2023-04-24T14:08:53;1.40;;;1.10;;
25531;SDS011;13429;48.816;9.118;2023-04-24T14:11:19;2.22;;;1.00;;
25531;SDS011;13429;48.816;9.118;2023-04-24T14:13:45;2.90;;;1.48;;
25531;SDS011;13429;48.816;9.118;2023-04-24T14:16:11;1.98;;;1.33;;
25531;SDS011;13429;48.816;9.118;2023-04-24T14:18:37;3.33;;;1.25;;
25531;SDS011;13429;48.816;9.118;2023-04-24T14:21:04;2.95;;;1.42;;
25531;SDS011;13429;48.816;9.118;2023-04-24T14:23:30;1.63;;;1.20;;
25531;SDS011;13429;48.816;9.118;2023-04-24T14:25:56;2.80;;;1.20;;
25531;SDS011;13429;48.816;9.118;2023-04-24T14:28:23;1.73;;;1.30;;
25531;SDS011;13429;48.816;9.118;2023-04-24T14:30:49;2.53;;;1.40;;
25531;SDS011;13429;48.816;9.118;2023-04-24T14:33:15;2.42;;;1.45;;
25531;SDS011;13429;48.816;9.118;2023-04-24T14:35:41;3.05;;;1.15;;
25531;SDS011;13429;48.816;9.118;2023-04-24T14:38:07;2.22;;;1.20;;
25531;SDS011;13429;48.816;9.118;2023-04-24T14:40:34;3.03;;;1.38;;
25531;SDS011;13429;48.816;9.118;2023-04-24T14:43:03;4.82;;;1.70;;
25531;SDS011;13429;48.816;9.118;2023-04-24T14:45:29;2.05;;;1.30;;
25531;SDS011;13429;48.816;9.118;2023-04-24T14:47:55;1.67;;;1.15;;
25531;SDS011;13429;48.816;9.118;2023-04-24T14:50:21;2.78;;;1.40;;
25531;SDS011;13429;48.816;9.118;2023-04-24T14:52:47;6.00;;;1.48;;
25531;SDS011;13429;48.816;9.118;2023-04-24T14:55:13;2.33;;;1.40;;
25531;SDS011;13429;48.816;9.118;2023-04-24T14:57:39;2.08;;;1.40;;
25531;SDS011;13429;48.816;9.118;2023-04-24T15:00:06;3.85;;;1.45;;